Bertioga, Brazil
Current Conditions -  °F | °C
As of 10:00 PM on Wednesday 22 Oct 2014 (Local Time) from SBGR Reporting Station
Overcast Overcast  
Wind Chill: 61°   Ceiling: 1500
Heat Index: 61°   Visibility: 6mi
Dew Point: 57°   Wind: 10mph
Humidity: 88%   Direction: 130°SE
Pressure: 30.24"   Gusts: NA
Location:  23.85°S, 46.14°W
Report Text: SBGR 230000Z 13009KT 9999 OVC015 16/14 Q1024
Loading
Personal Weather Stations






























Interactive Weather Map
Tropical Storm Tracking
New forecast layout! Learn more

10-Day Weather Forecast

Advertisements
Track Severe Weather on mobile